createdAt,value
2022-10-17T00:00:08.187Z,6.33
2022-10-17T00:02:34.961Z,6.19
2022-10-17T00:05:01.584Z,6.19
2022-10-17T00:07:28.531Z,6.35
2022-10-17T00:09:55.693Z,6.39
2022-10-17T00:12:22.443Z,6.31
2022-10-17T00:14:49.227Z,6.40
2022-10-17T00:17:16.282Z,6.19
2022-10-17T00:19:43.018Z,6.40
2022-10-17T00:22:09.698Z,6.49
2022-10-17T00:24:36.556Z,6.37
2022-10-17T00:27:03.723Z,6.29
2022-10-17T00:29:30.407Z,6.16
2022-10-17T00:31:57.740Z,6.07
2022-10-17T00:34:25.275Z,5.84
2022-10-17T00:36:51.872Z,5.62
2022-10-17T00:39:18.489Z,5.42
2022-10-17T00:41:45.102Z,5.21
2022-10-17T00:44:29.901Z,5.15
2022-10-17T00:47:02.137Z,4.97
2022-10-17T00:49:30.195Z,5.02
2022-10-17T00:52:01.656Z,4.90
2022-10-17T00:54:35.717Z,4.99
2022-10-17T00:57:03.688Z,4.94
2022-10-17T00:59:34.162Z,4.74
2022-10-17T01:02:04.754Z,4.98
2022-10-17T01:04:31.887Z,4.99
2022-10-17T01:06:58.619Z,4.93
2022-10-17T01:09:26.607Z,5.04
2022-10-17T01:12:46.436Z,5.20
2022-10-17T01:15:31.744Z,5.17
2022-10-17T01:18:08.939Z,5.18
2022-10-17T01:21:02.153Z,5.19
2022-10-17T01:23:53.727Z,5.19
2022-10-17T01:27:02.548Z,5.14
2022-10-17T01:30:00.633Z,5.10
2022-10-17T01:32:39.400Z,5.16
2022-10-17T01:35:12.740Z,5.16
2022-10-17T01:40:23.385Z,5.31
2022-10-17T01:43:39.842Z,5.41
2022-10-17T01:46:25.094Z,5.43
2022-10-17T01:48:54.065Z,5.45
2022-10-17T01:51:26.697Z,5.55
2022-10-17T01:54:01.098Z,5.52
2022-10-17T01:56:31.123Z,5.52
2022-10-17T01:59:03.213Z,5.50
2022-10-17T02:01:31.517Z,5.59
2022-10-17T02:04:00.774Z,5.53
2022-10-17T02:06:27.513Z,5.59
2022-10-17T02:08:54.301Z,5.57
2022-10-17T02:11:26.127Z,5.59
2022-10-17T02:17:06.898Z,5.55
2022-10-17T02:20:04.381Z,5.53
2022-10-17T02:22:48.246Z,5.29
2022-10-17T02:25:18.778Z,5.25
2022-10-17T02:27:50.653Z,5.32
2022-10-17T02:30:42.029Z,5.31
2022-10-17T02:33:18.641Z,5.14
2022-10-17T02:35:50.683Z,4.96
2022-10-17T02:38:19.499Z,4.86
2022-10-17T02:40:47.098Z,4.95
2022-10-17T02:43:14.938Z,4.95
2022-10-17T02:45:42.193Z,5.07
2022-10-17T02:48:16.611Z,4.99
2022-10-17T02:50:43.161Z,5.10
2022-10-17T02:53:15.711Z,5.00
2022-10-17T02:55:51.604Z,5.01
2022-10-17T02:58:27.030Z,5.06
2022-10-17T03:00:54.029Z,5.08
2022-10-17T03:03:20.626Z,5.09
2022-10-17T03:05:47.268Z,5.09
2022-10-17T03:08:13.942Z,5.05
2022-10-17T03:10:40.600Z,5.06
2022-10-17T03:13:07.296Z,5.11
2022-10-17T03:15:34.003Z,5.08
2022-10-17T03:18:00.808Z,5.05
2022-10-17T03:20:27.612Z,5.04
2022-10-17T03:22:54.331Z,4.97
2022-10-17T03:25:21.050Z,4.97
2022-10-17T03:27:47.699Z,4.91
2022-10-17T03:30:14.528Z,5.01
2022-10-17T03:32:41.201Z,5.04
2022-10-17T03:35:12.589Z,5.03
2022-10-17T03:37:41.609Z,4.91
2022-10-17T03:40:08.569Z,4.86
2022-10-17T03:42:35.194Z,4.77
2022-10-17T03:45:02.141Z,4.61
2022-10-17T03:47:29.490Z,4.61
2022-10-17T03:49:56.176Z,4.41
2022-10-17T03:52:22.884Z,4.27
2022-10-17T03:54:51.117Z,4.28
2022-10-17T03:57:19.430Z,4.21
2022-10-17T03:59:46.297Z,4.05
2022-10-17T04:02:13.491Z,3.91
2022-10-17T04:04:40.148Z,3.95
2022-10-17T04:07:06.826Z,3.96
2022-10-17T04:09:33.502Z,3.92
2022-10-17T04:12:00.211Z,3.91
2022-10-17T04:14:27.260Z,3.98
2022-10-17T04:16:54.408Z,3.97
2022-10-17T04:19:21.019Z,4.04
2022-10-17T04:21:48.379Z,4.00
2022-10-17T04:24:15.150Z,3.99
2022-10-17T04:26:41.818Z,3.97
2022-10-17T04:29:08.502Z,4.10
2022-10-17T04:31:35.283Z,4.18
2022-10-17T04:34:02.070Z,4.15
2022-10-17T04:36:28.647Z,4.15
2022-10-17T04:38:55.800Z,4.14
2022-10-17T04:41:22.703Z,4.15
2022-10-17T04:43:51.165Z,4.06
2022-10-17T04:46:18.541Z,4.15
2022-10-17T04:48:45.282Z,4.17
2022-10-17T04:51:15.005Z,4.01
2022-10-17T04:53:43.878Z,4.18
2022-10-17T04:56:16.260Z,4.17
2022-10-17T04:58:44.276Z,4.13
2022-10-17T05:01:15.655Z,4.11
2022-10-17T05:03:45.386Z,3.85
2022-10-17T05:06:17.734Z,4.36
2022-10-17T05:08:44.750Z,4.83
2022-10-17T05:11:27.051Z,5.31
2022-10-17T05:13:55.759Z,5.82
2022-10-17T05:16:22.750Z,6.61
2022-10-17T05:18:53.016Z,7.46
2022-10-17T05:21:20.471Z,8.54
2022-10-17T05:23:47.325Z,9.45
2022-10-17T05:26:14.337Z,10.16
2022-10-17T05:28:41.182Z,10.68
2022-10-17T05:31:09.373Z,11.13
2022-10-17T05:33:37.177Z,11.24
2022-10-17T05:36:04.801Z,12.10
2022-10-17T05:38:31.882Z,12.53
2022-10-17T05:40:59.880Z,13.13
2022-10-17T05:43:26.990Z,13.52
2022-10-17T05:45:54.872Z,13.72
2022-10-17T05:48:22.476Z,13.72
2022-10-17T05:50:49.474Z,13.68
2022-10-17T05:53:17.015Z,13.60
2022-10-17T05:55:43.708Z,13.38
2022-10-17T05:58:17.677Z,12.92
2022-10-17T06:00:49.233Z,12.85
2022-10-17T06:03:16.253Z,12.74
2022-10-17T06:05:42.922Z,12.49
2022-10-17T06:08:09.560Z,11.86
2022-10-17T06:10:36.301Z,11.54
2022-10-17T06:13:02.921Z,10.96
2022-10-17T06:15:29.583Z,10.72
2022-10-17T06:17:56.229Z,10.54
2022-10-17T06:20:22.908Z,10.46
2022-10-17T06:22:49.762Z,10.37
2022-10-17T06:25:16.528Z,10.46
2022-10-17T06:27:43.224Z,10.41
2022-10-17T06:30:10.172Z,10.23
2022-10-17T06:32:36.796Z,10.22
2022-10-17T06:35:03.619Z,9.72
2022-10-17T06:37:36.582Z,9.73
2022-10-17T06:40:04.487Z,9.16
2022-10-17T06:42:31.129Z,8.89
2022-10-17T06:44:57.901Z,9.13
2022-10-17T06:47:24.659Z,9.39
2022-10-17T06:49:51.389Z,9.32
2022-10-17T06:52:18.347Z,9.45
2022-10-17T06:54:45.050Z,9.30
2022-10-17T06:57:11.729Z,9.22
2022-10-17T06:59:38.697Z,9.70
2022-10-17T07:02:06.474Z,10.43
2022-10-17T07:04:33.316Z,10.72
2022-10-17T07:07:03.224Z,11.06
2022-10-17T07:09:31.152Z,11.08
2022-10-17T07:11:57.873Z,10.57
2022-10-17T07:14:31.833Z,10.22
2022-10-17T07:16:59.367Z,10.35
2022-10-17T07:19:27.197Z,10.36
2022-10-17T07:21:54.737Z,10.41
2022-10-17T07:24:21.592Z,10.33
2022-10-17T07:26:48.235Z,10.00
2022-10-17T07:29:14.979Z,10.15
2022-10-17T07:31:41.756Z,10.27
2022-10-17T07:34:08.435Z,10.43
2022-10-17T07:36:35.106Z,10.07
2022-10-17T07:39:01.717Z,10.28
2022-10-17T07:41:28.381Z,10.40
2022-10-17T07:43:55.895Z,10.60
2022-10-17T07:46:22.692Z,10.69
2022-10-17T07:48:49.386Z,10.54
2022-10-17T07:51:16.838Z,10.84
2022-10-17T07:53:47.967Z,11.12
2022-10-17T07:56:15.860Z,11.16
2022-10-17T07:58:42.617Z,11.25
2022-10-17T08:01:15.657Z,11.65
2022-10-17T08:03:44.756Z,12.05
2022-10-17T08:06:12.185Z,12.30
2022-10-17T08:08:38.932Z,11.94
2022-10-17T08:11:09.375Z,12.13
2022-10-17T08:13:37.291Z,12.54
2022-10-17T08:16:08.089Z,12.58
2022-10-17T08:18:36.156Z,12.62
2022-10-17T08:21:08.805Z,12.32
2022-10-17T08:23:36.271Z,12.41
2022-10-17T08:26:06.007Z,12.82
2022-10-17T08:28:35.693Z,13.09
2022-10-17T08:31:14.098Z,13.31
2022-10-17T08:33:43.069Z,13.25
2022-10-17T08:36:12.953Z,13.51
2022-10-17T08:38:42.911Z,13.88
2022-10-17T08:41:46.058Z,14.07
2022-10-17T08:44:18.744Z,14.35
2022-10-17T08:46:50.566Z,14.33
2022-10-17T08:49:34.406Z,14.39
2022-10-17T08:52:11.315Z,14.55
2022-10-17T08:54:46.004Z,14.81
2022-10-17T08:57:17.393Z,15.11
2022-10-17T08:59:46.150Z,15.34
2022-10-17T09:02:39.831Z,15.64
2022-10-17T09:05:31.467Z,15.80
2022-10-17T09:08:03.931Z,15.93
2022-10-17T09:11:04.463Z,16.18
2022-10-17T09:13:51.383Z,16.38
2022-10-17T09:16:37.515Z,16.31
2022-10-17T09:19:15.569Z,16.43
2022-10-17T09:21:44.608Z,16.64
2022-10-17T09:24:25.360Z,16.72
2022-10-17T09:26:54.005Z,16.81
2022-10-17T09:29:24.345Z,16.70
2022-10-17T09:32:05.880Z,16.71
2022-10-17T09:34:33.233Z,16.66
2022-10-17T09:37:02.522Z,16.82
2022-10-17T09:39:33.155Z,17.07
2022-10-17T09:42:01.703Z,17.21
2022-10-17T09:44:34.599Z,17.36
2022-10-17T09:47:29.964Z,17.12
2022-10-17T09:49:56.968Z,16.68
2022-10-17T09:52:36.528Z,17.02
2022-10-17T09:55:08.076Z,17.19
2022-10-17T09:57:53.806Z,17.37
2022-10-17T10:00:24.456Z,17.53
2022-10-17T10:02:51.222Z,16.73
2022-10-17T10:05:20.586Z,17.04
2022-10-17T10:08:14.674Z,16.66
2022-10-17T10:10:43.365Z,17.19
2022-10-17T10:13:13.331Z,17.33
2022-10-17T10:15:42.774Z,17.00
2022-10-17T10:21:10.333Z,17.23
2022-10-17T10:23:41.649Z,16.94
2022-10-17T10:26:21.602Z,17.32
2022-10-17T10:29:03.598Z,17.14
2022-10-17T10:31:39.489Z,17.48
2022-10-17T10:34:32.819Z,17.37
2022-10-17T10:37:02.459Z,17.12
2022-10-17T10:39:48.091Z,17.14
2022-10-17T10:42:35.537Z,17.13
2022-10-17T10:48:24.413Z,17.85
2022-10-17T10:50:57.532Z,18.13
2022-10-17T10:53:55.816Z,18.32
2022-10-17T10:56:26.026Z,18.14
2022-10-17T10:58:52.689Z,17.96
2022-10-17T11:01:29.807Z,18.20
2022-10-17T11:04:06.540Z,18.24
2022-10-17T11:06:37.603Z,18.10
2022-10-17T11:09:13.300Z,18.28
2022-10-17T11:12:20.628Z,18.40
2022-10-17T11:14:56.019Z,18.29
2022-10-17T11:17:50.731Z,18.21
2022-10-17T11:20:28.846Z,17.84
2022-10-17T11:23:19.964Z,17.90
2022-10-17T11:25:50.247Z,17.79
2022-10-17T11:28:19.438Z,17.93
2022-10-17T11:30:55.442Z,18.09
2022-10-17T11:34:02.954Z,18.43
2022-10-17T11:36:36.469Z,18.16
2022-10-17T11:39:20.648Z,18.12
2022-10-17T11:41:55.449Z,18.42
2022-10-17T11:44:40.441Z,17.99
2022-10-17T11:47:44.089Z,18.03
2022-10-17T11:53:17.785Z,18.49
2022-10-17T11:55:45.925Z,18.49
2022-10-17T11:58:19.233Z,18.47
2022-10-17T12:00:57.755Z,18.98
2022-10-17T12:03:54.030Z,18.92
2022-10-17T12:07:02.182Z,18.69
2022-10-17T12:09:46.986Z,18.83
2022-10-17T12:12:27.357Z,18.89
2022-10-17T12:14:56.258Z,18.97
2022-10-17T12:17:30.719Z,19.20
2022-10-17T12:20:21.155Z,19.16
2022-10-17T12:22:53.804Z,18.83
2022-10-17T12:25:26.313Z,18.93
2022-10-17T12:28:06.369Z,18.52
2022-10-17T12:30:34.287Z,18.94
2022-10-17T12:33:07.335Z,19.13
2022-10-17T12:35:36.203Z,19.12
2022-10-17T12:38:13.999Z,19.30
2022-10-17T12:40:48.531Z,19.48
2022-10-17T12:43:15.515Z,19.52
2022-10-17T12:45:54.034Z,19.32
2022-10-17T12:48:39.409Z,19.39
2022-10-17T12:51:34.718Z,19.18
2022-10-17T12:54:12.401Z,18.79
2022-10-17T12:56:49.826Z,18.75
2022-10-17T12:59:26.099Z,18.81
2022-10-17T13:01:56.375Z,18.74
2022-10-17T13:04:24.015Z,18.90
2022-10-17T13:06:56.502Z,18.88
2022-10-17T13:09:32.854Z,19.00
2022-10-17T13:12:03.548Z,19.16
2022-10-17T13:14:33.367Z,19.05
2022-10-17T13:17:05.648Z,19.06
2022-10-17T13:19:43.901Z,18.99
2022-10-17T13:22:16.804Z,19.09
2022-10-17T13:24:43.550Z,19.23
2022-10-17T13:27:39.644Z,19.30
2022-10-17T13:30:38.947Z,19.04
2022-10-17T13:33:27.790Z,19.14
2022-10-17T13:36:00.352Z,19.37
2022-10-17T13:38:30.327Z,19.58
2022-10-17T13:41:05.859Z,19.37
2022-10-17T13:43:44.058Z,19.51
2022-10-17T13:46:37.481Z,19.32
2022-10-17T13:49:18.706Z,18.78
2022-10-17T13:51:48.183Z,18.74
2022-10-17T13:54:40.450Z,18.68
2022-10-17T13:57:21.214Z,18.81
2022-10-17T13:59:51.560Z,18.90
2022-10-17T14:02:31.732Z,19.04
2022-10-17T14:05:17.128Z,18.92
2022-10-17T14:08:13.358Z,18.48
2022-10-17T14:10:42.480Z,18.72
2022-10-17T14:13:21.703Z,18.92
2022-10-17T14:15:48.940Z,19.20
2022-10-17T14:18:22.951Z,19.00
2022-10-17T14:23:41.311Z,18.82
2022-10-17T14:26:17.678Z,18.61
2022-10-17T14:28:48.434Z,18.38
2022-10-17T14:31:25.726Z,18.27
2022-10-17T14:33:54.188Z,17.97
2022-10-17T14:36:31.241Z,18.13
2022-10-17T14:38:58.296Z,18.18
2022-10-17T14:41:47.675Z,17.98
2022-10-17T14:44:20.266Z,17.53
2022-10-17T14:46:50.941Z,17.37
2022-10-17T14:49:25.080Z,17.38
2022-10-17T14:52:15.183Z,17.40
2022-10-17T14:54:46.739Z,17.39
2022-10-17T14:57:28.118Z,17.30
2022-10-17T14:59:58.692Z,16.95
2022-10-17T15:02:27.493Z,16.66
2022-10-17T15:04:54.707Z,16.67
2022-10-17T15:07:22.445Z,16.72
2022-10-17T15:09:51.378Z,16.60
2022-10-17T15:12:21.022Z,16.63
2022-10-17T15:14:48.836Z,16.49
2022-10-17T15:17:21.118Z,16.47
2022-10-17T15:19:48.623Z,16.41
2022-10-17T15:22:16.429Z,16.35
2022-10-17T15:24:43.679Z,16.18
2022-10-17T15:27:16.676Z,15.98
2022-10-17T15:29:43.792Z,15.84
2022-10-17T15:32:10.917Z,15.57
2022-10-17T15:34:37.993Z,15.48
2022-10-17T15:37:07.039Z,15.23
2022-10-17T15:39:34.406Z,15.29
2022-10-17T15:42:01.232Z,14.98
2022-10-17T15:44:28.138Z,14.66
2022-10-17T15:46:56.808Z,14.76
2022-10-17T15:49:23.742Z,14.56
2022-10-17T15:51:55.150Z,14.49
2022-10-17T15:54:22.549Z,14.37
2022-10-17T15:56:54.643Z,14.30
2022-10-17T15:59:23.178Z,14.18
2022-10-17T16:01:50.261Z,13.98
2022-10-17T16:04:18.588Z,14.06
2022-10-17T16:06:45.714Z,14.09
2022-10-17T16:09:13.109Z,13.98
2022-10-17T16:11:42.860Z,13.98
2022-10-17T16:14:15.203Z,13.90
2022-10-17T16:16:42.560Z,13.87
2022-10-17T16:19:09.646Z,13.86
2022-10-17T16:21:40.095Z,13.84
2022-10-17T16:24:07.242Z,13.77
2022-10-17T16:26:33.975Z,13.83
2022-10-17T16:29:03.179Z,13.84
2022-10-17T16:31:40.819Z,13.76
2022-10-17T16:34:09.229Z,13.67
2022-10-17T16:36:36.045Z,13.46
2022-10-17T16:39:03.282Z,13.54
2022-10-17T16:41:33.100Z,13.59
2022-10-17T16:44:02.333Z,13.52
2022-10-17T16:46:30.895Z,13.35
2022-10-17T16:48:58.519Z,13.35
2022-10-17T16:51:25.893Z,13.23
2022-10-17T16:53:56.807Z,13.10
2022-10-17T16:56:25.120Z,12.94
2022-10-17T16:58:53.070Z,13.09
2022-10-17T17:01:23.769Z,13.07
2022-10-17T17:03:51.355Z,13.06
2022-10-17T17:06:21.696Z,13.01
2022-10-17T17:08:50.021Z,12.66
2022-10-17T17:11:20.494Z,12.98
2022-10-17T17:13:47.680Z,12.97
2022-10-17T17:16:22.994Z,12.96
2022-10-17T17:18:55.795Z,12.92
2022-10-17T17:21:23.742Z,12.86
2022-10-17T17:23:51.025Z,12.88
2022-10-17T17:26:20.826Z,12.82
2022-10-17T17:28:48.789Z,12.75
2022-10-17T17:31:24.881Z,12.75
2022-10-17T17:33:52.584Z,12.69
2022-10-17T17:36:32.007Z,12.56
2022-10-17T17:39:01.814Z,12.28
2022-10-17T17:41:30.461Z,12.10
2022-10-17T17:44:03.469Z,11.86
2022-10-17T17:46:33.516Z,11.47
2022-10-17T17:49:03.242Z,11.31
2022-10-17T17:51:33.038Z,11.33
2022-10-17T17:53:59.886Z,11.23
2022-10-17T17:56:29.070Z,11.19
2022-10-17T17:59:04.453Z,11.18
2022-10-17T18:01:41.262Z,11.13
2022-10-17T18:04:12.248Z,11.04
2022-10-17T18:06:40.097Z,11.01
2022-10-17T18:09:07.881Z,11.10
2022-10-17T18:11:35.758Z,11.09
2022-10-17T18:14:09.037Z,11.15
2022-10-17T18:16:37.494Z,11.14
2022-10-17T18:19:07.161Z,11.20
2022-10-17T18:21:35.230Z,11.19
2022-10-17T18:24:02.624Z,11.17
2022-10-17T18:26:39.873Z,11.12
2022-10-17T18:29:06.819Z,11.11
2022-10-17T18:31:36.336Z,10.85
2022-10-17T18:34:06.004Z,10.83
2022-10-17T18:36:36.837Z,10.72
2022-10-17T18:39:06.471Z,10.81
2022-10-17T18:41:34.133Z,10.86
2022-10-17T18:44:01.273Z,10.75
2022-10-17T18:46:33.202Z,10.72
2022-10-17T18:49:02.076Z,10.80
2022-10-17T18:51:39.439Z,10.63
2022-10-17T18:54:11.915Z,10.74
2022-10-17T18:56:39.129Z,10.30
2022-10-17T18:59:10.475Z,10.72
2022-10-17T19:01:37.439Z,10.73
2022-10-17T19:04:04.569Z,10.80
2022-10-17T19:06:32.499Z,10.71
2022-10-17T19:09:03.328Z,10.84
2022-10-17T19:11:31.932Z,10.40
2022-10-17T19:14:05.228Z,10.68
2022-10-17T19:16:37.418Z,10.73
2022-10-17T19:19:12.341Z,10.86
2022-10-17T19:21:46.698Z,10.74
2022-10-17T19:24:19.430Z,10.75
2022-10-17T19:26:50.866Z,10.70
2022-10-17T19:29:18.790Z,10.63
2022-10-17T19:31:48.908Z,10.50
2022-10-17T19:34:22.366Z,10.40
2022-10-17T19:36:49.496Z,10.22
2022-10-17T19:39:21.066Z,10.31
2022-10-17T19:41:49.055Z,10.24
2022-10-17T19:44:17.354Z,9.59
2022-10-17T19:46:49.429Z,10.10
2022-10-17T19:49:24.633Z,9.87
2022-10-17T19:51:55.256Z,9.62
2022-10-17T19:54:22.179Z,9.71
2022-10-17T19:56:49.366Z,9.54
2022-10-17T19:59:21.006Z,9.65
2022-10-17T20:01:52.811Z,9.61
2022-10-17T20:04:20.084Z,9.44
2022-10-17T20:06:46.984Z,9.48
2022-10-17T20:09:16.983Z,9.12
2022-10-17T20:11:44.850Z,9.08
2022-10-17T20:14:11.772Z,9.25
2022-10-17T20:16:38.695Z,9.17
2022-10-17T20:19:08.639Z,9.16
2022-10-17T20:21:46.280Z,9.03
2022-10-17T20:24:17.410Z,8.98
2022-10-17T20:26:47.321Z,9.07
2022-10-17T20:29:21.082Z,9.10
2022-10-17T20:31:48.806Z,9.05
2022-10-17T20:34:17.305Z,9.00
2022-10-17T20:36:44.336Z,9.07
2022-10-17T20:39:12.952Z,9.05
2022-10-17T20:41:40.508Z,9.08
2022-10-17T20:44:08.866Z,9.01
2022-10-17T20:46:38.313Z,8.97
2022-10-17T20:49:09.350Z,8.90
2022-10-17T20:51:36.782Z,8.80
2022-10-17T20:54:06.338Z,8.74
2022-10-17T20:56:34.750Z,8.64
2022-10-17T20:59:05.734Z,8.61
2022-10-17T21:01:34.705Z,8.17
2022-10-17T21:04:21.315Z,8.24
2022-10-17T21:06:49.161Z,8.33
2022-10-17T21:09:16.306Z,8.27
2022-10-17T21:11:46.025Z,8.14
2022-10-17T21:14:12.975Z,7.97
2022-10-17T21:16:41.506Z,8.02
2022-10-17T21:19:10.229Z,7.94
2022-10-17T21:21:40.323Z,7.72
2022-10-17T21:24:12.832Z,7.65
2022-10-17T21:26:40.188Z,7.56
2022-10-17T21:29:08.171Z,7.53
2022-10-17T21:31:37.479Z,7.50
2022-10-17T21:34:13.070Z,7.47
2022-10-17T21:36:40.697Z,7.33
2022-10-17T21:41:34.931Z,7.38
2022-10-17T21:44:26.219Z,7.20
2022-10-17T21:46:54.150Z,7.10
2022-10-17T21:49:23.395Z,6.98
2022-10-17T21:51:51.505Z,6.77
2022-10-17T21:54:20.708Z,7.02
2022-10-17T21:56:47.692Z,6.91
2022-10-17T21:59:14.622Z,6.86
2022-10-17T22:01:43.859Z,6.83
2022-10-17T22:04:15.478Z,6.85
2022-10-17T22:06:45.437Z,6.81
2022-10-17T22:09:16.440Z,6.37
2022-10-17T22:11:46.645Z,6.57
2022-10-17T22:14:17.730Z,6.51
2022-10-17T22:16:46.429Z,6.33
2022-10-17T22:19:15.968Z,6.49
2022-10-17T22:21:42.776Z,6.54
2022-10-17T22:24:16.991Z,6.47
2022-10-17T22:26:44.723Z,6.53
2022-10-17T22:29:11.510Z,6.32
2022-10-17T22:31:39.043Z,6.53
2022-10-17T22:34:06.855Z,6.54
2022-10-17T22:36:34.612Z,6.52
2022-10-17T22:39:01.180Z,6.48
2022-10-17T22:41:28.104Z,6.25
2022-10-17T22:43:54.889Z,6.38
2022-10-17T22:46:21.522Z,6.22
2022-10-17T22:48:48.237Z,6.20
2022-10-17T22:51:15.547Z,5.98
2022-10-17T22:53:42.871Z,5.92
2022-10-17T22:56:15.012Z,6.03
2022-10-17T22:58:41.714Z,5.99
2022-10-17T23:01:12.953Z,5.93
2022-10-17T23:03:39.781Z,5.92
2022-10-17T23:06:06.537Z,5.75
2022-10-17T23:08:33.376Z,5.71
2022-10-17T23:11:00.094Z,5.76
2022-10-17T23:13:27.002Z,5.56
2022-10-17T23:15:55.312Z,5.76
2022-10-17T23:18:22.717Z,5.71
2022-10-17T23:20:49.797Z,5.85
2022-10-17T23:23:16.658Z,5.71
2022-10-17T23:25:43.722Z,5.69
2022-10-17T23:28:11.018Z,5.77
2022-10-17T23:30:39.114Z,5.66
2022-10-17T23:33:06.743Z,5.67
2022-10-17T23:35:35.781Z,5.55
2022-10-17T23:38:03.123Z,5.54
2022-10-17T23:40:29.922Z,5.50
2022-10-17T23:42:56.532Z,5.57
2022-10-17T23:45:23.294Z,5.62
2022-10-17T23:47:49.924Z,5.40
2022-10-17T23:50:16.585Z,5.29
2022-10-17T23:52:43.680Z,5.36
2022-10-17T23:55:10.638Z,5.32
2022-10-17T23:57:37.311Z,5.50
